sensor_id;sensor_type;location;lat;lon;timestamp;P1;durP1;ratioP1;P2;durP2;ratioP2
71655;SDS011;59497;48.798;8.816;2024-02-26T00:00:02;7.70;;;4.53;;
71655;SDS011;59497;48.798;8.816;2024-02-26T00:02:28;7.45;;;4.45;;
71655;SDS011;59497;48.798;8.816;2024-02-26T00:04:53;7.00;;;4.70;;
71655;SDS011;59497;48.798;8.816;2024-02-26T00:07:18;7.77;;;4.30;;
71655;SDS011;59497;48.798;8.816;2024-02-26T00:09:43;8.07;;;4.10;;
71655;SDS011;59497;48.798;8.816;2024-02-26T00:12:08;8.30;;;4.63;;
71655;SDS011;59497;48.798;8.816;2024-02-26T00:14:34;7.67;;;4.37;;
71655;SDS011;59497;48.798;8.816;2024-02-26T00:16:59;7.93;;;4.50;;
71655;SDS011;59497;48.798;8.816;2024-02-26T00:19:24;7.97;;;4.00;;
71655;SDS011;59497;48.798;8.816;2024-02-26T00:21:50;6.40;;;3.20;;
71655;SDS011;59497;48.798;8.816;2024-02-26T00:24:15;6.18;;;3.92;;
71655;SDS011;59497;48.798;8.816;2024-02-26T00:26:40;7.33;;;3.70;;
71655;SDS011;59497;48.798;8.816;2024-02-26T00:29:05;7.87;;;3.53;;
71655;SDS011;59497;48.798;8.816;2024-02-26T00:31:31;7.53;;;3.53;;
71655;SDS011;59497;48.798;8.816;2024-02-26T00:33:56;11.57;;;6.10;;
71655;SDS011;59497;48.798;8.816;2024-02-26T00:36:21;13.17;;;6.63;;
71655;SDS011;59497;48.798;8.816;2024-02-26T00:38:46;48.93;;;17.50;;
71655;SDS011;59497;48.798;8.816;2024-02-26T00:41:16;18.27;;;8.15;;
71655;SDS011;59497;48.798;8.816;2024-02-26T00:43:41;9.77;;;4.43;;
71655;SDS011;59497;48.798;8.816;2024-02-26T00:46:07;9.40;;;4.72;;
71655;SDS011;59497;48.798;8.816;2024-02-26T00:48:32;8.70;;;4.60;;
71655;SDS011;59497;48.798;8.816;2024-02-26T00:50:57;9.13;;;4.90;;
71655;SDS011;59497;48.798;8.816;2024-02-26T00:53:23;8.23;;;4.40;;
71655;SDS011;59497;48.798;8.816;2024-02-26T00:55:49;11.13;;;5.40;;
71655;SDS011;59497;48.798;8.816;2024-02-26T00:58:15;11.10;;;5.60;;
71655;SDS011;59497;48.798;8.816;2024-02-26T01:00:40;64.43;;;23.50;;
71655;SDS011;59497;48.798;8.816;2024-02-26T01:03:05;12.00;;;6.23;;
71655;SDS011;59497;48.798;8.816;2024-02-26T01:05:30;8.43;;;4.87;;
71655;SDS011;59497;48.798;8.816;2024-02-26T01:07:56;14.33;;;7.03;;
71655;SDS011;59497;48.798;8.816;2024-02-26T01:10:21;9.60;;;4.60;;
71655;SDS011;59497;48.798;8.816;2024-02-26T01:12:46;8.00;;;4.93;;
71655;SDS011;59497;48.798;8.816;2024-02-26T01:15:12;7.43;;;4.20;;
71655;SDS011;59497;48.798;8.816;2024-02-26T01:17:37;11.80;;;3.83;;
71655;SDS011;59497;48.798;8.816;2024-02-26T01:20:04;6.63;;;3.47;;
71655;SDS011;59497;48.798;8.816;2024-02-26T01:22:29;5.93;;;3.67;;
71655;SDS011;59497;48.798;8.816;2024-02-26T01:24:54;5.70;;;2.70;;
71655;SDS011;59497;48.798;8.816;2024-02-26T01:27:21;3.63;;;2.00;;
71655;SDS011;59497;48.798;8.816;2024-02-26T01:29:51;2.25;;;1.40;;
71655;SDS011;59497;48.798;8.816;2024-02-26T01:32:16;2.80;;;1.70;;
71655;SDS011;59497;48.798;8.816;2024-02-26T01:34:42;3.97;;;1.83;;
71655;SDS011;59497;48.798;8.816;2024-02-26T01:37:07;3.70;;;2.03;;
71655;SDS011;59497;48.798;8.816;2024-02-26T01:39:32;5.03;;;3.30;;
71655;SDS011;59497;48.798;8.816;2024-02-26T01:41:57;4.57;;;2.43;;
71655;SDS011;59497;48.798;8.816;2024-02-26T01:44:22;4.03;;;2.40;;
71655;SDS011;59497;48.798;8.816;2024-02-26T01:46:48;4.43;;;2.03;;
71655;SDS011;59497;48.798;8.816;2024-02-26T01:49:13;5.70;;;2.50;;
71655;SDS011;59497;48.798;8.816;2024-02-26T01:51:39;3.87;;;2.57;;
71655;SDS011;59497;48.798;8.816;2024-02-26T01:54:05;3.70;;;2.05;;
71655;SDS011;59497;48.798;8.816;2024-02-26T01:56:32;3.40;;;2.00;;
71655;SDS011;59497;48.798;8.816;2024-02-26T01:58:58;5.65;;;2.75;;
71655;SDS011;59497;48.798;8.816;2024-02-26T02:01:27;4.90;;;3.70;;
71655;SDS011;59497;48.798;8.816;2024-02-26T02:03:54;5.72;;;4.00;;
71655;SDS011;59497;48.798;8.816;2024-02-26T02:06:20;5.82;;;3.00;;
71655;SDS011;59497;48.798;8.816;2024-02-26T02:08:46;2.73;;;1.90;;
71655;SDS011;59497;48.798;8.816;2024-02-26T02:11:11;1.77;;;0.60;;
71655;SDS011;59497;48.798;8.816;2024-02-26T02:13:37;1.63;;;0.75;;
71655;SDS011;59497;48.798;8.816;2024-02-26T02:16:02;1.40;;;0.53;;
71655;SDS011;59497;48.798;8.816;2024-02-26T02:18:27;1.40;;;0.47;;
71655;SDS011;59497;48.798;8.816;2024-02-26T02:20:53;1.53;;;0.60;;
71655;SDS011;59497;48.798;8.816;2024-02-26T02:23:18;0.93;;;0.22;;
71655;SDS011;59497;48.798;8.816;2024-02-26T02:25:44;0.83;;;0.40;;
71655;SDS011;59497;48.798;8.816;2024-02-26T02:28:09;1.53;;;0.90;;
71655;SDS011;59497;48.798;8.816;2024-02-26T02:30:34;1.40;;;0.83;;
71655;SDS011;59497;48.798;8.816;2024-02-26T02:33:00;2.50;;;0.70;;
71655;SDS011;59497;48.798;8.816;2024-02-26T02:35:26;2.17;;;0.80;;
71655;SDS011;59497;48.798;8.816;2024-02-26T02:37:56;1.90;;;0.70;;
71655;SDS011;59497;48.798;8.816;2024-02-26T02:40:21;1.33;;;0.38;;
71655;SDS011;59497;48.798;8.816;2024-02-26T02:42:46;0.50;;;0.47;;
71655;SDS011;59497;48.798;8.816;2024-02-26T02:45:11;0.70;;;0.30;;
71655;SDS011;59497;48.798;8.816;2024-02-26T02:47:37;0.57;;;0.30;;
71655;SDS011;59497;48.798;8.816;2024-02-26T02:50:02;0.67;;;0.50;;
71655;SDS011;59497;48.798;8.816;2024-02-26T02:52:28;1.87;;;0.40;;
71655;SDS011;59497;48.798;8.816;2024-02-26T02:54:53;0.80;;;0.50;;
71655;SDS011;59497;48.798;8.816;2024-02-26T02:57:18;0.50;;;0.40;;
71655;SDS011;59497;48.798;8.816;2024-02-26T02:59:44;0.73;;;0.50;;
71655;SDS011;59497;48.798;8.816;2024-02-26T03:02:09;0.97;;;0.70;;
71655;SDS011;59497;48.798;8.816;2024-02-26T03:04:34;0.67;;;0.20;;
71655;SDS011;59497;48.798;8.816;2024-02-26T03:06:59;0.63;;;0.50;;
71655;SDS011;59497;48.798;8.816;2024-02-26T03:09:25;0.63;;;0.20;;
71655;SDS011;59497;48.798;8.816;2024-02-26T03:11:50;0.53;;;0.40;;
71655;SDS011;59497;48.798;8.816;2024-02-26T03:14:15;0.60;;;0.30;;
71655;SDS011;59497;48.798;8.816;2024-02-26T03:16:41;1.03;;;0.40;;
71655;SDS011;59497;48.798;8.816;2024-02-26T03:19:06;0.73;;;0.50;;
71655;SDS011;59497;48.798;8.816;2024-02-26T03:21:31;0.60;;;0.30;;
71655;SDS011;59497;48.798;8.816;2024-02-26T03:23:57;0.77;;;0.37;;
71655;SDS011;59497;48.798;8.816;2024-02-26T03:26:22;0.90;;;0.27;;
71655;SDS011;59497;48.798;8.816;2024-02-26T03:28:47;0.90;;;0.50;;
71655;SDS011;59497;48.798;8.816;2024-02-26T03:31:13;0.67;;;0.30;;
71655;SDS011;59497;48.798;8.816;2024-02-26T03:33:38;1.10;;;0.50;;
71655;SDS011;59497;48.798;8.816;2024-02-26T03:36:03;0.40;;;0.33;;
71655;SDS011;59497;48.798;8.816;2024-02-26T03:38:29;0.40;;;0.40;;
71655;SDS011;59497;48.798;8.816;2024-02-26T03:40:54;0.57;;;0.47;;
71655;SDS011;59497;48.798;8.816;2024-02-26T03:43:19;0.73;;;0.30;;
71655;SDS011;59497;48.798;8.816;2024-02-26T03:45:45;0.93;;;0.40;;
71655;SDS011;59497;48.798;8.816;2024-02-26T03:48:10;1.57;;;0.50;;
71655;SDS011;59497;48.798;8.816;2024-02-26T03:50:35;1.10;;;0.40;;
71655;SDS011;59497;48.798;8.816;2024-02-26T03:53:00;1.20;;;0.50;;
71655;SDS011;59497;48.798;8.816;2024-02-26T03:55:26;1.03;;;0.30;;
71655;SDS011;59497;48.798;8.816;2024-02-26T03:57:51;0.60;;;0.43;;
71655;SDS011;59497;48.798;8.816;2024-02-26T04:00:17;2.20;;;0.77;;
71655;SDS011;59497;48.798;8.816;2024-02-26T04:02:42;0.20;;;0.10;;
71655;SDS011;59497;48.798;8.816;2024-02-26T04:05:10;0.90;;;0.50;;
71655;SDS011;59497;48.798;8.816;2024-02-26T04:07:36;0.55;;;0.30;;
71655;SDS011;59497;48.798;8.816;2024-02-26T04:10:01;0.80;;;0.47;;
71655;SDS011;59497;48.798;8.816;2024-02-26T04:12:29;0.50;;;0.17;;
71655;SDS011;59497;48.798;8.816;2024-02-26T04:14:55;0.47;;;0.10;;
71655;SDS011;59497;48.798;8.816;2024-02-26T04:17:20;0.20;;;0.20;;
71655;SDS011;59497;48.798;8.816;2024-02-26T04:19:45;1.57;;;0.40;;
71655;SDS011;59497;48.798;8.816;2024-02-26T04:22:10;1.13;;;0.33;;
71655;SDS011;59497;48.798;8.816;2024-02-26T04:24:36;1.00;;;0.27;;
71655;SDS011;59497;48.798;8.816;2024-02-26T04:27:01;0.50;;;0.40;;
71655;SDS011;59497;48.798;8.816;2024-02-26T04:29:26;0.47;;;0.30;;
71655;SDS011;59497;48.798;8.816;2024-02-26T04:31:51;1.33;;;0.60;;
71655;SDS011;59497;48.798;8.816;2024-02-26T04:34:16;0.60;;;0.40;;
71655;SDS011;59497;48.798;8.816;2024-02-26T04:36:42;1.10;;;0.37;;
71655;SDS011;59497;48.798;8.816;2024-02-26T04:39:07;1.27;;;0.40;;
71655;SDS011;59497;48.798;8.816;2024-02-26T04:41:32;0.50;;;0.40;;
71655;SDS011;59497;48.798;8.816;2024-02-26T04:43:57;0.80;;;0.60;;
71655;SDS011;59497;48.798;8.816;2024-02-26T04:46:23;0.80;;;0.40;;
71655;SDS011;59497;48.798;8.816;2024-02-26T04:48:48;2.10;;;0.10;;
71655;SDS011;59497;48.798;8.816;2024-02-26T04:51:13;0.70;;;0.40;;
71655;SDS011;59497;48.798;8.816;2024-02-26T04:53:38;1.23;;;0.40;;
71655;SDS011;59497;48.798;8.816;2024-02-26T04:56:04;0.80;;;0.30;;
71655;SDS011;59497;48.798;8.816;2024-02-26T04:58:29;1.75;;;1.25;;
71655;SDS011;59497;48.798;8.816;2024-02-26T05:00:54;2.03;;;1.10;;
71655;SDS011;59497;48.798;8.816;2024-02-26T05:03:20;2.23;;;1.50;;
71655;SDS011;59497;48.798;8.816;2024-02-26T05:05:45;1.20;;;0.63;;
71655;SDS011;59497;48.798;8.816;2024-02-26T05:08:11;1.43;;;0.13;;
71655;SDS011;59497;48.798;8.816;2024-02-26T05:10:37;0.70;;;0.30;;
71655;SDS011;59497;48.798;8.816;2024-02-26T05:13:06;0.70;;;0.10;;
71655;SDS011;59497;48.798;8.816;2024-02-26T05:15:31;0.63;;;0.20;;
71655;SDS011;59497;48.798;8.816;2024-02-26T05:17:57;0.50;;;0.10;;
71655;SDS011;59497;48.798;8.816;2024-02-26T05:20:22;1.07;;;0.60;;
71655;SDS011;59497;48.798;8.816;2024-02-26T05:22:47;1.03;;;0.40;;
71655;SDS011;59497;48.798;8.816;2024-02-26T05:25:14;1.02;;;0.20;;
71655;SDS011;59497;48.798;8.816;2024-02-26T05:27:39;1.20;;;0.60;;
71655;SDS011;59497;48.798;8.816;2024-02-26T05:30:05;1.30;;;0.70;;
71655;SDS011;59497;48.798;8.816;2024-02-26T05:32:30;0.60;;;0.60;;
71655;SDS011;59497;48.798;8.816;2024-02-26T05:34:55;0.83;;;0.33;;
71655;SDS011;59497;48.798;8.816;2024-02-26T05:37:21;2.47;;;0.60;;
71655;SDS011;59497;48.798;8.816;2024-02-26T05:39:46;0.87;;;0.40;;
71655;SDS011;59497;48.798;8.816;2024-02-26T05:42:11;0.73;;;0.27;;
71655;SDS011;59497;48.798;8.816;2024-02-26T05:44:36;1.30;;;0.50;;
71655;SDS011;59497;48.798;8.816;2024-02-26T05:47:02;1.03;;;0.63;;
71655;SDS011;59497;48.798;8.816;2024-02-26T05:49:27;3.47;;;0.87;;
71655;SDS011;59497;48.798;8.816;2024-02-26T05:51:52;1.00;;;0.40;;
71655;SDS011;59497;48.798;8.816;2024-02-26T05:54:18;1.23;;;0.30;;
71655;SDS011;59497;48.798;8.816;2024-02-26T05:56:44;1.25;;;0.50;;
71655;SDS011;59497;48.798;8.816;2024-02-26T05:59:09;1.47;;;0.60;;
71655;SDS011;59497;48.798;8.816;2024-02-26T06:01:34;1.37;;;0.53;;
71655;SDS011;59497;48.798;8.816;2024-02-26T06:04:00;0.73;;;0.40;;
71655;SDS011;59497;48.798;8.816;2024-02-26T06:06:25;0.77;;;0.10;;
71655;SDS011;59497;48.798;8.816;2024-02-26T06:08:50;1.40;;;0.50;;
71655;SDS011;59497;48.798;8.816;2024-02-26T06:11:15;0.60;;;0.20;;
71655;SDS011;59497;48.798;8.816;2024-02-26T06:13:40;0.63;;;0.17;;
71655;SDS011;59497;48.798;8.816;2024-02-26T06:16:07;0.80;;;0.47;;
71655;SDS011;59497;48.798;8.816;2024-02-26T06:18:33;0.87;;;0.40;;
71655;SDS011;59497;48.798;8.816;2024-02-26T06:20:58;0.77;;;0.20;;
71655;SDS011;59497;48.798;8.816;2024-02-26T06:23:23;0.80;;;0.30;;
71655;SDS011;59497;48.798;8.816;2024-02-26T06:25:48;1.77;;;0.50;;
71655;SDS011;59497;48.798;8.816;2024-02-26T06:28:13;1.47;;;0.70;;
71655;SDS011;59497;48.798;8.816;2024-02-26T06:30:39;1.07;;;0.50;;
71655;SDS011;59497;48.798;8.816;2024-02-26T06:33:04;0.57;;;0.37;;
71655;SDS011;59497;48.798;8.816;2024-02-26T06:35:29;0.60;;;0.37;;
71655;SDS011;59497;48.798;8.816;2024-02-26T06:37:54;0.50;;;0.37;;
71655;SDS011;59497;48.798;8.816;2024-02-26T06:40:20;0.73;;;0.30;;
71655;SDS011;59497;48.798;8.816;2024-02-26T06:42:45;0.73;;;0.37;;
71655;SDS011;59497;48.798;8.816;2024-02-26T06:45:10;0.70;;;0.20;;
71655;SDS011;59497;48.798;8.816;2024-02-26T06:47:36;1.03;;;0.50;;
71655;SDS011;59497;48.798;8.816;2024-02-26T06:50:01;1.00;;;0.37;;
71655;SDS011;59497;48.798;8.816;2024-02-26T06:52:26;0.70;;;0.40;;
71655;SDS011;59497;48.798;8.816;2024-02-26T06:54:52;1.27;;;0.80;;
71655;SDS011;59497;48.798;8.816;2024-02-26T06:57:18;1.02;;;0.40;;
71655;SDS011;59497;48.798;8.816;2024-02-26T06:59:44;1.42;;;0.30;;
71655;SDS011;59497;48.798;8.816;2024-02-26T07:02:12;0.82;;;0.30;;
71655;SDS011;59497;48.798;8.816;2024-02-26T07:04:37;0.60;;;0.33;;
71655;SDS011;59497;48.798;8.816;2024-02-26T07:07:02;0.30;;;0.13;;
71655;SDS011;59497;48.798;8.816;2024-02-26T07:09:27;0.67;;;0.27;;
71655;SDS011;59497;48.798;8.816;2024-02-26T07:11:52;1.23;;;0.40;;
71655;SDS011;59497;48.798;8.816;2024-02-26T07:14:18;0.63;;;0.30;;
71655;SDS011;59497;48.798;8.816;2024-02-26T07:16:43;0.80;;;0.40;;
71655;SDS011;59497;48.798;8.816;2024-02-26T07:19:08;0.70;;;0.60;;
71655;SDS011;59497;48.798;8.816;2024-02-26T07:21:33;0.70;;;0.40;;
71655;SDS011;59497;48.798;8.816;2024-02-26T07:23:59;0.87;;;0.40;;
71655;SDS011;59497;48.798;8.816;2024-02-26T07:26:24;1.20;;;0.57;;
71655;SDS011;59497;48.798;8.816;2024-02-26T07:28:51;0.75;;;0.40;;
71655;SDS011;59497;48.798;8.816;2024-02-26T07:31:17;0.57;;;0.17;;
71655;SDS011;59497;48.798;8.816;2024-02-26T07:33:42;0.93;;;0.30;;
71655;SDS011;59497;48.798;8.816;2024-02-26T07:36:07;0.90;;;0.50;;
71655;SDS011;59497;48.798;8.816;2024-02-26T07:38:32;1.63;;;0.30;;
71655;SDS011;59497;48.798;8.816;2024-02-26T07:40:58;0.40;;;0.30;;
71655;SDS011;59497;48.798;8.816;2024-02-26T07:43:23;1.70;;;0.67;;
71655;SDS011;59497;48.798;8.816;2024-02-26T07:45:48;3.33;;;1.63;;
71655;SDS011;59497;48.798;8.816;2024-02-26T07:48:14;1.63;;;1.10;;
71655;SDS011;59497;48.798;8.816;2024-02-26T07:50:39;0.73;;;0.43;;
71655;SDS011;59497;48.798;8.816;2024-02-26T07:53:05;0.93;;;0.77;;
71655;SDS011;59497;48.798;8.816;2024-02-26T07:55:30;0.97;;;0.40;;
71655;SDS011;59497;48.798;8.816;2024-02-26T07:57:56;0.98;;;0.60;;
71655;SDS011;59497;48.798;8.816;2024-02-26T08:00:21;1.27;;;0.20;;
71655;SDS011;59497;48.798;8.816;2024-02-26T08:02:46;1.17;;;0.33;;
71655;SDS011;59497;48.798;8.816;2024-02-26T08:05:12;0.90;;;0.30;;
71655;SDS011;59497;48.798;8.816;2024-02-26T08:07:37;2.23;;;0.70;;
71655;SDS011;59497;48.798;8.816;2024-02-26T08:10:02;7.07;;;5.07;;
71655;SDS011;59497;48.798;8.816;2024-02-26T08:12:28;2.83;;;2.00;;
71655;SDS011;59497;48.798;8.816;2024-02-26T08:14:53;2.87;;;1.97;;
71655;SDS011;59497;48.798;8.816;2024-02-26T08:17:18;9.57;;;8.67;;
71655;SDS011;59497;48.798;8.816;2024-02-26T08:19:43;3.23;;;2.30;;
71655;SDS011;59497;48.798;8.816;2024-02-26T08:22:08;6.13;;;3.90;;
71655;SDS011;59497;48.798;8.816;2024-02-26T08:24:40;6.90;;;4.63;;
71655;SDS011;59497;48.798;8.816;2024-02-26T08:27:06;31.40;;;18.73;;
71655;SDS011;59497;48.798;8.816;2024-02-26T08:29:31;11.27;;;7.27;;
71655;SDS011;59497;48.798;8.816;2024-02-26T08:31:56;5.67;;;2.87;;
71655;SDS011;59497;48.798;8.816;2024-02-26T08:34:21;2.17;;;1.70;;
71655;SDS011;59497;48.798;8.816;2024-02-26T08:36:47;2.80;;;1.17;;
71655;SDS011;59497;48.798;8.816;2024-02-26T08:39:14;1.60;;;1.20;;
71655;SDS011;59497;48.798;8.816;2024-02-26T08:41:39;1.50;;;1.00;;
71655;SDS011;59497;48.798;8.816;2024-02-26T08:44:04;1.80;;;1.00;;
71655;SDS011;59497;48.798;8.816;2024-02-26T08:46:29;2.37;;;1.30;;
71655;SDS011;59497;48.798;8.816;2024-02-26T08:48:54;2.00;;;1.40;;
71655;SDS011;59497;48.798;8.816;2024-02-26T08:51:20;1.97;;;1.50;;
71655;SDS011;59497;48.798;8.816;2024-02-26T08:53:45;2.07;;;1.40;;
71655;SDS011;59497;48.798;8.816;2024-02-26T08:56:10;2.27;;;1.77;;
71655;SDS011;59497;48.798;8.816;2024-02-26T08:58:41;2.92;;;1.65;;
71655;SDS011;59497;48.798;8.816;2024-02-26T09:01:06;3.70;;;1.73;;
71655;SDS011;59497;48.798;8.816;2024-02-26T09:03:32;3.30;;;2.00;;
71655;SDS011;59497;48.798;8.816;2024-02-26T09:05:57;2.83;;;2.10;;
71655;SDS011;59497;48.798;8.816;2024-02-26T09:08:22;4.53;;;1.83;;
71655;SDS011;59497;48.798;8.816;2024-02-26T09:10:47;2.37;;;1.43;;
71655;SDS011;59497;48.798;8.816;2024-02-26T09:13:21;2.47;;;1.15;;
71655;SDS011;59497;48.798;8.816;2024-02-26T09:15:47;1.50;;;1.33;;
71655;SDS011;59497;48.798;8.816;2024-02-26T09:18:12;2.53;;;1.50;;
71655;SDS011;59497;48.798;8.816;2024-02-26T09:20:38;2.40;;;1.30;;
71655;SDS011;59497;48.798;8.816;2024-02-26T09:23:03;3.08;;;1.75;;
71655;SDS011;59497;48.798;8.816;2024-02-26T09:25:29;3.23;;;1.80;;
71655;SDS011;59497;48.798;8.816;2024-02-26T09:27:54;2.40;;;1.80;;
71655;SDS011;59497;48.798;8.816;2024-02-26T09:30:19;2.42;;;1.40;;
71655;SDS011;59497;48.798;8.816;2024-02-26T09:32:46;3.17;;;1.90;;
71655;SDS011;59497;48.798;8.816;2024-02-26T09:35:11;3.75;;;2.00;;
71655;SDS011;59497;48.798;8.816;2024-02-26T09:37:38;5.47;;;2.50;;
71655;SDS011;59497;48.798;8.816;2024-02-26T09:40:03;3.77;;;1.97;;
71655;SDS011;59497;48.798;8.816;2024-02-26T09:42:29;4.07;;;1.83;;
71655;SDS011;59497;48.798;8.816;2024-02-26T09:44:56;4.15;;;2.30;;
71655;SDS011;59497;48.798;8.816;2024-02-26T09:47:23;3.85;;;2.30;;
71655;SDS011;59497;48.798;8.816;2024-02-26T09:49:49;4.67;;;1.77;;
71655;SDS011;59497;48.798;8.816;2024-02-26T09:52:14;3.10;;;1.85;;
71655;SDS011;59497;48.798;8.816;2024-02-26T09:54:40;2.53;;;1.60;;
71655;SDS011;59497;48.798;8.816;2024-02-26T09:57:06;2.92;;;1.60;;
71655;SDS011;59497;48.798;8.816;2024-02-26T09:59:39;2.80;;;1.98;;
71655;SDS011;59497;48.798;8.816;2024-02-26T10:02:08;2.00;;;1.67;;
71655;SDS011;59497;48.798;8.816;2024-02-26T10:04:34;1.90;;;1.20;;
71655;SDS011;59497;48.798;8.816;2024-02-26T10:06:59;2.80;;;1.50;;
71655;SDS011;59497;48.798;8.816;2024-02-26T10:09:26;2.97;;;1.50;;
71655;SDS011;59497;48.798;8.816;2024-02-26T10:11:51;1.70;;;1.30;;
71655;SDS011;59497;48.798;8.816;2024-02-26T10:14:16;2.30;;;1.70;;
71655;SDS011;59497;48.798;8.816;2024-02-26T10:16:42;3.00;;;1.73;;
71655;SDS011;59497;48.798;8.816;2024-02-26T10:19:07;4.23;;;2.40;;
71655;SDS011;59497;48.798;8.816;2024-02-26T10:21:32;2.53;;;1.70;;
71655;SDS011;59497;48.798;8.816;2024-02-26T10:23:58;1.67;;;1.57;;
71655;SDS011;59497;48.798;8.816;2024-02-26T10:26:23;1.80;;;1.30;;
71655;SDS011;59497;48.798;8.816;2024-02-26T10:28:48;3.80;;;1.67;;
71655;SDS011;59497;48.798;8.816;2024-02-26T10:31:14;1.57;;;1.20;;
71655;SDS011;59497;48.798;8.816;2024-02-26T10:33:40;2.42;;;1.73;;
71655;SDS011;59497;48.798;8.816;2024-02-26T10:36:06;1.83;;;1.20;;
71655;SDS011;59497;48.798;8.816;2024-02-26T10:38:32;1.33;;;0.83;;
71655;SDS011;59497;48.798;8.816;2024-02-26T10:40:58;1.67;;;1.25;;
71655;SDS011;59497;48.798;8.816;2024-02-26T10:43:25;2.17;;;1.37;;
71655;SDS011;59497;48.798;8.816;2024-02-26T10:45:50;1.88;;;1.40;;
71655;SDS011;59497;48.798;8.816;2024-02-26T10:48:15;1.30;;;0.90;;
71655;SDS011;59497;48.798;8.816;2024-02-26T10:50:41;2.15;;;1.38;;
71655;SDS011;59497;48.798;8.816;2024-02-26T10:53:11;0.97;;;0.90;;
71655;SDS011;59497;48.798;8.816;2024-02-26T10:55:40;1.30;;;1.20;;
71655;SDS011;59497;48.798;8.816;2024-02-26T10:58:05;1.70;;;1.10;;
71655;SDS011;59497;48.798;8.816;2024-02-26T11:00:32;1.90;;;1.17;;
71655;SDS011;59497;48.798;8.816;2024-02-26T11:02:57;2.40;;;1.10;;
71655;SDS011;59497;48.798;8.816;2024-02-26T11:05:26;1.47;;;1.37;;
71655;SDS011;59497;48.798;8.816;2024-02-26T11:07:52;1.88;;;1.67;;
71655;SDS011;59497;48.798;8.816;2024-02-26T11:10:17;4.33;;;1.30;;
71655;SDS011;59497;48.798;8.816;2024-02-26T11:12:43;2.15;;;1.25;;
71655;SDS011;59497;48.798;8.816;2024-02-26T11:15:08;1.57;;;1.30;;
71655;SDS011;59497;48.798;8.816;2024-02-26T11:17:34;1.80;;;1.30;;
71655;SDS011;59497;48.798;8.816;2024-02-26T11:20:00;1.42;;;1.02;;
71655;SDS011;59497;48.798;8.816;2024-02-26T11:22:27;1.52;;;0.98;;
71655;SDS011;59497;48.798;8.816;2024-02-26T11:24:53;1.20;;;0.90;;
71655;SDS011;59497;48.798;8.816;2024-02-26T11:27:29;1.30;;;1.00;;
71655;SDS011;59497;48.798;8.816;2024-02-26T11:29:57;1.77;;;0.80;;
71655;SDS011;59497;48.798;8.816;2024-02-26T11:32:25;1.23;;;0.70;;
71655;SDS011;59497;48.798;8.816;2024-02-26T11:34:51;1.17;;;0.60;;
71655;SDS011;59497;48.798;8.816;2024-02-26T11:37:16;1.10;;;0.77;;
71655;SDS011;59497;48.798;8.816;2024-02-26T11:39:42;0.83;;;0.80;;
71655;SDS011;59497;48.798;8.816;2024-02-26T11:42:08;1.08;;;0.70;;
71655;SDS011;59497;48.798;8.816;2024-02-26T11:44:33;1.50;;;0.80;;
71655;SDS011;59497;48.798;8.816;2024-02-26T11:46:58;1.17;;;1.07;;
71655;SDS011;59497;48.798;8.816;2024-02-26T11:51:56;0.70;;;0.70;;
71655;SDS011;59497;48.798;8.816;2024-02-26T11:54:44;0.60;;;0.60;;
71655;SDS011;59497;48.798;8.816;2024-02-26T11:57:26;0.50;;;0.50;;
71655;SDS011;59497;48.798;8.816;2024-02-26T11:59:52;1.17;;;1.00;;
71655;SDS011;59497;48.798;8.816;2024-02-26T12:05:01;1.38;;;1.10;;
71655;SDS011;59497;48.798;8.816;2024-02-26T12:07:27;1.95;;;1.00;;
71655;SDS011;59497;48.798;8.816;2024-02-26T12:09:56;2.83;;;1.17;;
71655;SDS011;59497;48.798;8.816;2024-02-26T12:12:37;1.90;;;0.90;;
71655;SDS011;59497;48.798;8.816;2024-02-26T12:15:04;0.70;;;0.70;;
71655;SDS011;59497;48.798;8.816;2024-02-26T12:17:29;2.10;;;1.20;;
71655;SDS011;59497;48.798;8.816;2024-02-26T12:19:55;1.45;;;1.00;;
71655;SDS011;59497;48.798;8.816;2024-02-26T12:22:32;3.25;;;1.08;;
71655;SDS011;59497;48.798;8.816;2024-02-26T12:24:58;1.50;;;0.73;;
71655;SDS011;59497;48.798;8.816;2024-02-26T12:27:23;1.83;;;1.23;;
71655;SDS011;59497;48.798;8.816;2024-02-26T12:29:48;1.30;;;1.00;;
71655;SDS011;59497;48.798;8.816;2024-02-26T12:32:14;1.43;;;1.10;;
71655;SDS011;59497;48.798;8.816;2024-02-26T12:34:39;1.47;;;1.37;;
71655;SDS011;59497;48.798;8.816;2024-02-26T12:37:04;1.97;;;1.10;;
71655;SDS011;59497;48.798;8.816;2024-02-26T12:39:29;1.50;;;0.90;;
71655;SDS011;59497;48.798;8.816;2024-02-26T12:41:57;2.90;;;1.57;;
71655;SDS011;59497;48.798;8.816;2024-02-26T12:44:24;1.70;;;1.10;;
71655;SDS011;59497;48.798;8.816;2024-02-26T12:46:50;1.17;;;0.98;;
71655;SDS011;59497;48.798;8.816;2024-02-26T12:49:15;2.17;;;1.70;;
71655;SDS011;59497;48.798;8.816;2024-02-26T12:51:43;1.47;;;1.10;;
71655;SDS011;59497;48.798;8.816;2024-02-26T12:54:08;2.38;;;1.13;;
71655;SDS011;59497;48.798;8.816;2024-02-26T12:56:34;1.23;;;0.80;;
71655;SDS011;59497;48.798;8.816;2024-02-26T12:58:59;1.83;;;1.17;;
71655;SDS011;59497;48.798;8.816;2024-02-26T13:01:24;0.70;;;0.70;;
71655;SDS011;59497;48.798;8.816;2024-02-26T13:03:50;1.17;;;0.93;;
71655;SDS011;59497;48.798;8.816;2024-02-26T13:06:16;0.77;;;0.38;;
71655;SDS011;59497;48.798;8.816;2024-02-26T13:08:42;1.08;;;0.70;;
71655;SDS011;59497;48.798;8.816;2024-02-26T13:11:07;1.00;;;0.30;;
71655;SDS011;59497;48.798;8.816;2024-02-26T13:13:33;0.83;;;0.60;;
71655;SDS011;59497;48.798;8.816;2024-02-26T13:16:05;1.67;;;0.70;;
71655;SDS011;59497;48.798;8.816;2024-02-26T13:18:32;0.95;;;0.60;;
71655;SDS011;59497;48.798;8.816;2024-02-26T13:21:07;0.70;;;0.70;;
71655;SDS011;59497;48.798;8.816;2024-02-26T13:23:33;1.43;;;0.40;;
71655;SDS011;59497;48.798;8.816;2024-02-26T13:25:58;1.13;;;0.70;;
71655;SDS011;59497;48.798;8.816;2024-02-26T13:28:23;0.97;;;0.40;;
71655;SDS011;59497;48.798;8.816;2024-02-26T13:30:55;1.35;;;0.70;;
71655;SDS011;59497;48.798;8.816;2024-02-26T13:33:22;0.70;;;0.40;;
71655;SDS011;59497;48.798;8.816;2024-02-26T13:35:47;2.53;;;0.77;;
71655;SDS011;59497;48.798;8.816;2024-02-26T13:38:12;1.40;;;0.40;;
71655;SDS011;59497;48.798;8.816;2024-02-26T13:40:38;0.83;;;0.47;;
71655;SDS011;59497;48.798;8.816;2024-02-26T13:43:04;0.60;;;0.45;;
71655;SDS011;59497;48.798;8.816;2024-02-26T13:45:29;0.70;;;0.70;;
71655;SDS011;59497;48.798;8.816;2024-02-26T13:47:59;1.63;;;0.60;;
71655;SDS011;59497;48.798;8.816;2024-02-26T13:50:26;0.90;;;0.90;;
71655;SDS011;59497;48.798;8.816;2024-02-26T13:52:51;2.03;;;0.90;;
71655;SDS011;59497;48.798;8.816;2024-02-26T13:55:18;1.77;;;1.20;;
71655;SDS011;59497;48.798;8.816;2024-02-26T13:57:44;1.43;;;0.70;;
71655;SDS011;59497;48.798;8.816;2024-02-26T14:00:10;1.20;;;1.00;;
71655;SDS011;59497;48.798;8.816;2024-02-26T14:02:35;2.43;;;1.00;;
71655;SDS011;59497;48.798;8.816;2024-02-26T14:05:01;1.55;;;1.00;;
71655;SDS011;59497;48.798;8.816;2024-02-26T14:07:28;1.47;;;1.03;;
71655;SDS011;59497;48.798;8.816;2024-02-26T14:09:53;2.73;;;1.20;;
71655;SDS011;59497;48.798;8.816;2024-02-26T14:12:19;1.40;;;0.87;;
71655;SDS011;59497;48.798;8.816;2024-02-26T14:14:44;1.00;;;0.83;;
71655;SDS011;59497;48.798;8.816;2024-02-26T14:17:10;1.20;;;0.77;;
71655;SDS011;59497;48.798;8.816;2024-02-26T14:19:37;1.50;;;1.02;;
71655;SDS011;59497;48.798;8.816;2024-02-26T14:22:04;1.85;;;0.95;;
71655;SDS011;59497;48.798;8.816;2024-02-26T14:24:30;1.00;;;0.90;;
71655;SDS011;59497;48.798;8.816;2024-02-26T14:26:55;1.10;;;0.60;;
71655;SDS011;59497;48.798;8.816;2024-02-26T14:29:20;2.40;;;1.03;;
71655;SDS011;59497;48.798;8.816;2024-02-26T14:31:45;2.00;;;0.70;;
71655;SDS011;59497;48.798;8.816;2024-02-26T14:34:11;2.90;;;1.30;;
71655;SDS011;59497;48.798;8.816;2024-02-26T14:36:36;1.30;;;1.20;;
71655;SDS011;59497;48.798;8.816;2024-02-26T14:39:01;1.20;;;1.10;;
71655;SDS011;59497;48.798;8.816;2024-02-26T14:41:26;1.83;;;0.97;;
71655;SDS011;59497;48.798;8.816;2024-02-26T14:43:51;1.37;;;1.03;;